createdAt,value
2022-07-30T00:02:06.467Z,17.44
2022-07-30T00:04:33.038Z,17.46
2022-07-30T00:07:00.480Z,17.49
2022-07-30T00:09:27.363Z,17.46
2022-07-30T00:11:54.207Z,17.42
2022-07-30T00:14:21.144Z,17.49
2022-07-30T00:16:47.991Z,17.31
2022-07-30T00:19:17.206Z,17.36
2022-07-30T00:21:45.052Z,17.28
2022-07-30T00:24:11.795Z,17.27
2022-07-30T00:26:38.629Z,17.21
2022-07-30T00:29:06.397Z,17.21
2022-07-30T00:31:33.138Z,17.21
2022-07-30T00:33:59.844Z,17.18
2022-07-30T00:36:26.416Z,17.28
2022-07-30T00:38:56.147Z,17.25
2022-07-30T00:41:23.079Z,17.24
2022-07-30T00:43:54.351Z,17.17
2022-07-30T00:46:21.080Z,17.11
2022-07-30T00:48:47.716Z,17.04
2022-07-30T00:51:14.386Z,17.00
2022-07-30T00:53:41.159Z,16.94
2022-07-30T00:56:07.895Z,16.90
2022-07-30T00:58:34.515Z,16.90
2022-07-30T01:01:01.220Z,16.87
2022-07-30T01:03:27.787Z,16.99
2022-07-30T01:05:54.738Z,16.94
2022-07-30T01:08:21.322Z,16.96
2022-07-30T01:10:47.929Z,16.83
2022-07-30T01:13:14.528Z,16.84
2022-07-30T01:15:41.702Z,16.86
2022-07-30T01:18:11.648Z,16.77
2022-07-30T01:20:52.221Z,16.76
2022-07-30T01:23:29.937Z,16.73
2022-07-30T01:26:03.835Z,16.75
2022-07-30T01:28:35.328Z,16.80
2022-07-30T01:31:04.079Z,16.75
2022-07-30T01:33:32.834Z,16.72
2022-07-30T01:36:01.260Z,16.72
2022-07-30T01:38:31.105Z,16.70
2022-07-30T01:41:03.648Z,16.60
2022-07-30T01:43:31.407Z,16.56
2022-07-30T01:45:59.398Z,16.60
2022-07-30T01:48:28.013Z,16.58
2022-07-30T01:50:57.573Z,16.58
2022-07-30T01:53:26.421Z,16.52
2022-07-30T01:55:55.178Z,16.51
2022-07-30T01:58:24.587Z,16.52
2022-07-30T02:00:58.314Z,16.46
2022-07-30T02:03:28.070Z,16.39
2022-07-30T02:06:02.083Z,16.44
2022-07-30T02:08:43.309Z,16.49
2022-07-30T02:11:37.269Z,16.48
2022-07-30T02:14:09.259Z,16.42
2022-07-30T02:16:39.037Z,16.39
2022-07-30T02:19:13.982Z,16.38
2022-07-30T02:21:50.542Z,16.52
2022-07-30T02:24:22.260Z,16.39
2022-07-30T02:26:55.220Z,16.41
2022-07-30T02:29:23.742Z,16.30
2022-07-30T02:31:54.093Z,16.29
2022-07-30T02:34:24.137Z,16.21
2022-07-30T02:36:54.051Z,16.22
2022-07-30T02:39:22.818Z,16.19
2022-07-30T02:41:54.649Z,16.08
2022-07-30T02:44:22.867Z,16.08
2022-07-30T02:46:52.539Z,16.07
2022-07-30T02:49:21.481Z,16.08
2022-07-30T02:51:50.670Z,16.12
2022-07-30T02:54:20.021Z,16.01
2022-07-30T02:56:48.643Z,16.09
2022-07-30T02:59:18.734Z,16.19
2022-07-30T03:01:46.839Z,15.96
2022-07-30T03:04:14.903Z,15.98
2022-07-30T03:06:43.291Z,16.01
2022-07-30T03:09:10.296Z,15.97
2022-07-30T03:11:37.417Z,16.07
2022-07-30T03:14:04.130Z,15.96
2022-07-30T03:16:34.755Z,16.07
2022-07-30T03:19:05.262Z,16.14
2022-07-30T03:21:34.337Z,16.17
2022-07-30T03:24:03.405Z,16.22
2022-07-30T03:26:31.217Z,16.11
2022-07-30T03:28:58.656Z,16.00
2022-07-30T03:31:25.539Z,15.91
2022-07-30T03:33:55.457Z,15.94
2022-07-30T03:36:22.609Z,15.87
2022-07-30T03:38:50.784Z,15.84
2022-07-30T03:41:18.031Z,15.76
2022-07-30T03:43:46.046Z,15.87
2022-07-30T03:46:14.028Z,15.77
2022-07-30T03:48:41.230Z,15.86
2022-07-30T03:51:10.228Z,15.81
2022-07-30T03:53:37.752Z,15.81
2022-07-30T03:56:04.743Z,15.80
2022-07-30T03:58:35.743Z,15.80
2022-07-30T04:01:03.077Z,15.79
2022-07-30T04:03:31.777Z,15.77
2022-07-30T04:05:59.411Z,15.88
2022-07-30T04:08:27.322Z,15.73
2022-07-30T04:10:54.055Z,15.76
2022-07-30T04:13:20.744Z,15.77
2022-07-30T04:16:39.498Z,15.96
2022-07-30T04:19:00.022Z,15.87
2022-07-30T04:21:27.767Z,15.79
2022-07-30T04:24:02.910Z,15.71
2022-07-30T04:26:33.248Z,15.70
2022-07-30T04:29:01.371Z,15.73
2022-07-30T04:31:28.982Z,15.70
2022-07-30T04:33:55.709Z,15.77
2022-07-30T04:36:30.606Z,15.70
2022-07-30T04:38:58.803Z,15.79
2022-07-30T04:41:25.960Z,15.83
2022-07-30T04:43:53.113Z,15.90
2022-07-30T04:46:19.756Z,15.87
2022-07-30T04:48:47.972Z,15.86
2022-07-30T04:51:28.467Z,15.96
2022-07-30T04:53:56.069Z,16.00
2022-07-30T04:56:23.135Z,16.07
2022-07-30T04:58:52.504Z,16.05
2022-07-30T05:01:23.537Z,16.04
2022-07-30T05:04:04.362Z,16.24
2022-07-30T05:06:31.139Z,16.18
2022-07-30T05:08:58.759Z,16.21
2022-07-30T05:11:39.404Z,16.38
2022-07-30T05:14:06.611Z,16.30
2022-07-30T05:16:35.029Z,16.39
2022-07-30T05:19:02.263Z,16.29
2022-07-30T05:21:34.449Z,16.29
2022-07-30T05:24:00.999Z,16.29
2022-07-30T05:26:28.060Z,16.33
2022-07-30T05:28:56.616Z,16.41
2022-07-30T05:31:24.514Z,16.58
2022-07-30T05:33:53.108Z,16.53
2022-07-30T05:36:21.062Z,16.55
2022-07-30T05:38:48.585Z,16.69
2022-07-30T05:41:19.145Z,16.84
2022-07-30T05:43:59.299Z,17.06
2022-07-30T05:46:26.233Z,17.21
2022-07-30T05:48:53.744Z,17.32
2022-07-30T05:51:22.145Z,17.30
2022-07-30T05:53:49.187Z,17.39
2022-07-30T05:56:15.785Z,17.39
2022-07-30T05:58:42.424Z,17.35
2022-07-30T06:01:12.293Z,17.51
2022-07-30T06:03:39.033Z,17.61
2022-07-30T06:06:14.191Z,17.58
2022-07-30T06:08:40.793Z,17.62
2022-07-30T06:11:11.912Z,17.76
2022-07-30T06:13:38.551Z,17.87
2022-07-30T06:16:05.664Z,18.10
2022-07-30T06:18:32.665Z,18.16
2022-07-30T06:20:59.303Z,18.06
2022-07-30T06:23:26.083Z,18.27
2022-07-30T06:25:55.807Z,18.40
2022-07-30T06:28:39.061Z,18.55
2022-07-30T06:31:07.046Z,18.67
2022-07-30T06:33:36.064Z,18.79
2022-07-30T06:36:02.617Z,18.85
2022-07-30T06:38:29.524Z,18.91
2022-07-30T06:41:02.046Z,18.81
2022-07-30T06:43:29.677Z,19.26
2022-07-30T06:45:56.301Z,19.57
2022-07-30T06:48:23.059Z,19.85
2022-07-30T06:50:50.220Z,20.24
2022-07-30T06:53:16.736Z,20.52
2022-07-30T06:55:43.525Z,20.93
2022-07-30T06:58:11.918Z,21.22
2022-07-30T07:00:38.593Z,21.41
2022-07-30T07:03:07.557Z,21.65
2022-07-30T07:05:38.497Z,21.97
2022-07-30T07:08:05.368Z,22.14
2022-07-30T07:10:32.136Z,22.37
2022-07-30T07:13:00.727Z,22.57
2022-07-30T07:15:36.338Z,22.78
2022-07-30T07:18:05.034Z,23.06
2022-07-30T07:20:32.240Z,23.30
2022-07-30T07:22:58.871Z,23.55
2022-07-30T07:25:26.195Z,23.74
2022-07-30T07:28:12.504Z,24.01
2022-07-30T07:30:39.614Z,24.26
2022-07-30T07:33:06.212Z,24.50
2022-07-30T07:35:48.548Z,24.67
2022-07-30T07:38:18.197Z,24.90
2022-07-30T07:40:45.053Z,25.00
2022-07-30T07:43:11.709Z,25.21
2022-07-30T07:45:39.250Z,25.38
2022-07-30T07:48:06.034Z,25.55
2022-07-30T07:50:32.787Z,25.79
2022-07-30T07:52:59.811Z,25.87
2022-07-30T07:55:26.523Z,26.16
2022-07-30T07:57:54.478Z,26.41
2022-07-30T08:00:21.142Z,26.52
2022-07-30T08:02:48.740Z,26.81
2022-07-30T08:05:16.003Z,26.92
2022-07-30T08:07:43.884Z,27.13
2022-07-30T08:10:11.377Z,27.36
2022-07-30T08:12:37.914Z,27.48
2022-07-30T08:15:05.064Z,27.53
2022-07-30T08:17:31.807Z,27.69
2022-07-30T08:20:00.457Z,27.99
2022-07-30T08:22:27.892Z,28.02
2022-07-30T08:24:54.610Z,28.10
2022-07-30T08:27:21.188Z,28.43
2022-07-30T08:29:48.282Z,28.63
2022-07-30T08:32:15.068Z,28.67
2022-07-30T08:34:41.696Z,28.97
2022-07-30T08:37:09.530Z,29.10
2022-07-30T08:39:36.209Z,29.05
2022-07-30T08:42:06.361Z,29.28
2022-07-30T08:44:33.849Z,29.51
2022-07-30T08:47:01.982Z,29.83
2022-07-30T08:49:29.256Z,29.91
2022-07-30T08:51:56.441Z,30.13
2022-07-30T08:54:23.109Z,30.06
2022-07-30T08:56:50.103Z,30.28
2022-07-30T08:59:23.268Z,30.65
2022-07-30T09:01:52.024Z,30.92
2022-07-30T09:04:18.715Z,30.82
2022-07-30T09:06:45.509Z,31.04
2022-07-30T09:09:12.103Z,31.29
2022-07-30T09:11:38.697Z,31.43
2022-07-30T09:14:12.690Z,31.50
2022-07-30T09:16:40.720Z,31.38
2022-07-30T09:19:19.308Z,31.82
2022-07-30T09:21:59.959Z,31.85
2022-07-30T09:24:27.825Z,32.08
2022-07-30T09:27:02.566Z,32.49
2022-07-30T09:29:31.144Z,32.59
2022-07-30T09:32:07.585Z,32.73
2022-07-30T09:34:36.831Z,32.97
2022-07-30T09:37:09.188Z,33.06
2022-07-30T09:39:39.277Z,33.14
2022-07-30T09:42:18.383Z,33.12
2022-07-30T09:44:45.569Z,32.92
2022-07-30T09:47:31.555Z,33.29
2022-07-30T09:50:09.550Z,33.62
2022-07-30T09:52:44.287Z,33.80
2022-07-30T09:55:28.377Z,33.77
2022-07-30T09:57:58.690Z,34.09
2022-07-30T10:00:27.158Z,34.41
2022-07-30T10:02:55.297Z,34.34
2022-07-30T10:05:22.557Z,34.04
2022-07-30T10:07:59.654Z,34.24
2022-07-30T10:10:28.958Z,34.52
2022-07-30T10:13:01.302Z,34.50
2022-07-30T10:15:36.679Z,34.68
2022-07-30T10:18:06.829Z,34.70
2022-07-30T10:20:36.782Z,35.06
2022-07-30T10:23:08.085Z,35.32
2022-07-30T10:25:36.419Z,34.96
2022-07-30T10:28:04.043Z,35.20
2022-07-30T10:30:31.422Z,35.27
2022-07-30T10:33:00.121Z,35.29
2022-07-30T10:35:34.451Z,35.27
2022-07-30T10:38:13.951Z,35.56
2022-07-30T10:40:57.103Z,35.45
2022-07-30T10:43:43.954Z,35.81
2022-07-30T10:46:36.964Z,35.72
2022-07-30T10:49:18.723Z,36.11
2022-07-30T10:51:56.622Z,36.00
2022-07-30T10:54:39.954Z,36.08
2022-07-30T10:57:15.215Z,35.85
2022-07-30T10:59:50.652Z,35.85
2022-07-30T11:02:21.774Z,35.94
2022-07-30T11:04:49.868Z,36.17
2022-07-30T11:07:23.520Z,36.38
2022-07-30T11:10:08.716Z,36.17
2022-07-30T11:12:42.109Z,36.34
2022-07-30T11:15:18.116Z,36.00
2022-07-30T11:18:12.849Z,35.47
2022-07-30T11:20:41.196Z,35.40
2022-07-30T11:23:20.727Z,35.49
2022-07-30T11:25:51.049Z,35.54
2022-07-30T11:28:40.606Z,34.82
2022-07-30T11:31:37.326Z,34.43
2022-07-30T11:34:18.127Z,33.55
2022-07-30T11:37:18.336Z,33.12
2022-07-30T11:39:55.913Z,32.69
2022-07-30T11:42:33.840Z,32.52
2022-07-30T11:45:15.767Z,32.18
2022-07-30T11:47:47.699Z,32.16
2022-07-30T11:50:25.640Z,31.95
2022-07-30T11:53:01.326Z,31.38
2022-07-30T11:55:32.651Z,31.26
2022-07-30T11:58:01.229Z,31.23
2022-07-30T12:00:42.592Z,31.13
2022-07-30T12:03:17.096Z,31.16
2022-07-30T12:05:44.694Z,31.17
2022-07-30T12:08:33.283Z,31.27
2022-07-30T12:11:01.687Z,31.50
2022-07-30T12:13:44.166Z,31.53
2022-07-30T12:16:16.782Z,31.67
2022-07-30T12:18:44.450Z,31.74
2022-07-30T12:21:12.809Z,31.61
2022-07-30T12:23:43.310Z,31.63
2022-07-30T12:26:31.510Z,31.57
2022-07-30T12:29:00.730Z,31.31
2022-07-30T12:31:28.148Z,31.38
2022-07-30T12:33:58.339Z,31.43
2022-07-30T12:36:26.126Z,31.86
2022-07-30T12:38:55.777Z,32.02
2022-07-30T12:41:22.688Z,31.99
2022-07-30T12:43:55.914Z,32.01
2022-07-30T12:46:27.640Z,32.35
2022-07-30T12:49:06.952Z,32.80
2022-07-30T12:51:51.957Z,33.04
2022-07-30T12:54:20.003Z,33.35
2022-07-30T12:56:59.520Z,33.28
2022-07-30T12:59:27.000Z,33.14
2022-07-30T13:01:54.003Z,32.98
2022-07-30T13:04:20.928Z,33.03
2022-07-30T13:07:08.006Z,32.79
2022-07-30T13:09:35.813Z,32.43
2022-07-30T13:12:03.573Z,32.01
2022-07-30T13:14:31.168Z,32.29
2022-07-30T13:16:58.796Z,32.53
2022-07-30T13:19:26.799Z,32.53
2022-07-30T13:21:53.597Z,32.96
2022-07-30T13:24:20.684Z,32.73
2022-07-30T13:26:47.880Z,32.61
2022-07-30T13:29:17.512Z,32.59
2022-07-30T13:31:44.311Z,32.57
2022-07-30T13:34:12.183Z,32.43
2022-07-30T13:36:39.291Z,32.35
2022-07-30T13:39:05.910Z,32.22
2022-07-30T13:41:33.270Z,32.29
2022-07-30T13:44:00.014Z,32.11
2022-07-30T13:46:26.803Z,32.12
2022-07-30T13:48:53.843Z,32.09
2022-07-30T13:51:20.565Z,32.06
2022-07-30T13:53:47.138Z,32.11
2022-07-30T13:56:13.778Z,32.09
2022-07-30T13:58:42.409Z,32.26
2022-07-30T14:01:10.168Z,32.52
2022-07-30T14:03:49.370Z,32.86
2022-07-30T14:06:17.700Z,32.88
2022-07-30T14:08:44.343Z,32.70
2022-07-30T14:11:10.982Z,32.74
2022-07-30T14:13:38.037Z,33.11
2022-07-30T14:16:10.664Z,33.22
2022-07-30T14:18:40.634Z,33.11
2022-07-30T14:21:07.297Z,32.96
2022-07-30T14:23:33.909Z,32.73
2022-07-30T14:26:00.472Z,32.86
2022-07-30T14:28:27.045Z,33.01
2022-07-30T14:30:53.642Z,32.77
2022-07-30T14:33:20.429Z,32.73
2022-07-30T14:35:47.038Z,32.66
2022-07-30T14:38:17.057Z,32.73
2022-07-30T14:40:43.721Z,32.80
2022-07-30T14:43:10.305Z,32.55
2022-07-30T14:45:36.868Z,32.37
2022-07-30T14:48:03.686Z,32.26
2022-07-30T14:50:30.765Z,32.23
2022-07-30T14:52:58.423Z,32.36
2022-07-30T14:55:25.181Z,32.33
2022-07-30T14:57:54.800Z,31.98
2022-07-30T15:00:21.444Z,31.78
2022-07-30T15:02:51.078Z,31.51
2022-07-30T15:05:17.925Z,31.41
2022-07-30T15:07:44.439Z,31.41
2022-07-30T15:10:11.113Z,31.40
2022-07-30T15:12:37.818Z,31.19
2022-07-30T15:15:06.118Z,31.03
2022-07-30T15:17:34.979Z,30.86
2022-07-30T15:20:01.690Z,30.89
2022-07-30T15:22:31.437Z,30.76
2022-07-30T15:25:01.560Z,30.61
2022-07-30T15:27:33.919Z,30.55
2022-07-30T15:30:01.456Z,30.48
2022-07-30T15:32:28.159Z,30.47
2022-07-30T15:34:58.507Z,30.25
2022-07-30T15:37:26.428Z,30.04
2022-07-30T15:39:53.587Z,29.99
2022-07-30T15:42:33.366Z,29.76
2022-07-30T15:45:19.033Z,29.76
2022-07-30T15:47:46.381Z,29.53
2022-07-30T15:50:13.458Z,29.35
2022-07-30T15:52:40.148Z,29.42
2022-07-30T15:55:07.499Z,29.26
2022-07-30T15:57:34.182Z,29.29
2022-07-30T16:00:01.124Z,29.22
2022-07-30T16:02:28.055Z,29.10
2022-07-30T16:04:54.665Z,29.01
2022-07-30T16:07:21.314Z,28.87
2022-07-30T16:09:48.250Z,28.73
2022-07-30T16:12:14.853Z,28.70
2022-07-30T16:14:41.419Z,28.68
2022-07-30T16:17:15.051Z,28.61
2022-07-30T16:19:44.730Z,28.56
2022-07-30T16:22:12.391Z,28.49
2022-07-30T16:24:41.978Z,28.45
2022-07-30T16:27:10.299Z,28.46
2022-07-30T16:29:36.829Z,28.45
2022-07-30T16:32:04.641Z,28.39
2022-07-30T16:34:32.932Z,28.33
2022-07-30T16:37:04.356Z,28.36
2022-07-30T16:39:31.232Z,28.12
2022-07-30T16:42:04.522Z,27.98
2022-07-30T16:44:33.986Z,27.74
2022-07-30T16:47:01.965Z,27.62
2022-07-30T16:49:28.769Z,27.50
2022-07-30T16:51:59.987Z,27.47
2022-07-30T16:54:26.928Z,27.39
2022-07-30T16:56:53.444Z,27.37
2022-07-30T16:59:20.638Z,27.33
2022-07-30T17:01:48.156Z,27.26
2022-07-30T17:04:15.122Z,27.14
2022-07-30T17:06:44.157Z,27.04
2022-07-30T17:09:15.786Z,26.91
2022-07-30T17:11:48.095Z,26.83
2022-07-30T17:14:19.603Z,26.73
2022-07-30T17:16:46.192Z,26.69
2022-07-30T17:19:12.729Z,26.65
2022-07-30T17:21:39.291Z,26.61
2022-07-30T17:24:11.078Z,26.59
2022-07-30T17:26:40.478Z,26.62
2022-07-30T17:29:09.682Z,26.56
2022-07-30T17:31:43.232Z,26.51
2022-07-30T17:34:10.974Z,26.47
2022-07-30T17:36:38.679Z,26.44
2022-07-30T17:39:05.931Z,26.42
2022-07-30T17:41:32.683Z,26.33
2022-07-30T17:44:01.903Z,26.27
2022-07-30T17:46:30.807Z,26.24
2022-07-30T17:49:01.973Z,26.24
2022-07-30T17:51:28.595Z,26.18
2022-07-30T17:53:55.506Z,26.10
2022-07-30T17:56:27.047Z,26.06
2022-07-30T17:58:53.999Z,26.07
2022-07-30T18:01:20.660Z,26.07
2022-07-30T18:03:47.222Z,26.08
2022-07-30T18:06:13.772Z,26.08
2022-07-30T18:08:40.402Z,26.04
2022-07-30T18:11:10.614Z,25.98
2022-07-30T18:13:39.934Z,25.96
2022-07-30T18:16:06.908Z,25.87
2022-07-30T18:18:34.422Z,25.83
2022-07-30T18:21:02.038Z,25.73
2022-07-30T18:23:34.738Z,25.67
2022-07-30T18:26:01.906Z,25.53
2022-07-30T18:28:29.154Z,25.48
2022-07-30T18:30:55.786Z,25.37
2022-07-30T18:33:22.521Z,25.32
2022-07-30T18:35:49.290Z,25.27
2022-07-30T18:38:16.998Z,25.19
2022-07-30T18:40:44.924Z,25.19
2022-07-30T18:43:11.500Z,25.11
2022-07-30T18:45:38.100Z,25.10
2022-07-30T18:48:05.081Z,25.11
2022-07-30T18:50:32.896Z,25.04
2022-07-30T18:53:01.671Z,24.97
2022-07-30T18:55:43.028Z,24.88
2022-07-30T18:58:09.788Z,24.90
2022-07-30T19:00:37.405Z,24.87
2022-07-30T19:03:04.337Z,24.86
2022-07-30T19:05:32.170Z,24.79
2022-07-30T19:08:01.917Z,24.69
2022-07-30T19:10:28.482Z,24.67
2022-07-30T19:12:55.753Z,24.59
2022-07-30T19:15:23.430Z,24.59
2022-07-30T19:17:51.306Z,24.55
2022-07-30T19:20:20.440Z,24.53
2022-07-30T19:22:46.990Z,24.50
2022-07-30T19:25:13.811Z,24.49
2022-07-30T19:27:40.412Z,24.42
2022-07-30T19:30:07.413Z,24.33
2022-07-30T19:32:33.989Z,24.30
2022-07-30T19:35:01.826Z,24.22
2022-07-30T19:37:28.473Z,24.21
2022-07-30T19:40:05.702Z,24.22
2022-07-30T19:42:33.706Z,24.19
2022-07-30T19:45:04.249Z,24.25
2022-07-30T19:47:39.823Z,24.22
2022-07-30T19:50:10.241Z,24.21
2022-07-30T19:52:38.801Z,24.15
2022-07-30T19:55:31.176Z,24.08
2022-07-30T19:57:54.418Z,23.98
2022-07-30T20:00:24.933Z,23.94
2022-07-30T20:02:52.114Z,23.95
2022-07-30T20:05:18.889Z,23.91
2022-07-30T20:07:45.625Z,23.89
2022-07-30T20:10:13.118Z,23.86
2022-07-30T20:12:42.666Z,23.78
2022-07-30T20:15:17.236Z,23.73
2022-07-30T20:17:44.084Z,23.73
2022-07-30T20:20:13.818Z,23.71
2022-07-30T20:22:40.782Z,23.71
2022-07-30T20:25:08.738Z,23.65
2022-07-30T20:27:38.662Z,23.65
2022-07-30T20:30:07.083Z,23.61
2022-07-30T20:32:34.432Z,23.61
2022-07-30T20:35:01.985Z,23.60
2022-07-30T20:37:29.164Z,23.60
2022-07-30T20:39:56.088Z,23.55
2022-07-30T20:42:24.868Z,23.57
2022-07-30T20:44:53.443Z,23.50
2022-07-30T20:47:33.377Z,23.46
2022-07-30T20:50:05.664Z,23.39
2022-07-30T20:52:36.633Z,23.37
2022-07-30T20:55:03.535Z,23.31
2022-07-30T20:57:55.174Z,23.31
2022-07-30T21:00:18.759Z,23.34
2022-07-30T21:02:46.870Z,23.36
2022-07-30T21:05:17.943Z,23.33
2022-07-30T21:07:46.989Z,23.23
2022-07-30T21:10:13.586Z,23.19
2022-07-30T21:12:44.668Z,23.12
2022-07-30T21:15:23.899Z,23.05
2022-07-30T21:17:52.177Z,23.03
2022-07-30T21:20:27.520Z,22.94
2022-07-30T21:22:55.610Z,23.05
2022-07-30T21:28:09.696Z,23.07
2022-07-30T21:30:45.126Z,23.12
2022-07-30T21:33:11.854Z,23.09
2022-07-30T21:35:39.133Z,23.05
2022-07-30T21:38:07.858Z,22.92
2022-07-30T21:40:35.450Z,22.85
2022-07-30T21:43:03.737Z,22.78
2022-07-30T21:45:38.809Z,22.68
2022-07-30T21:48:07.326Z,22.69
2022-07-30T21:50:33.944Z,22.64
2022-07-30T21:53:01.252Z,22.57
2022-07-30T21:55:27.788Z,22.58
2022-07-30T21:58:01.855Z,22.52
2022-07-30T22:01:16.338Z,22.51
2022-07-30T22:04:03.857Z,22.48
2022-07-30T22:06:42.025Z,22.45
2022-07-30T22:09:19.032Z,22.40
2022-07-30T22:12:01.345Z,22.33
2022-07-30T22:14:29.333Z,22.28
2022-07-30T22:17:04.379Z,22.28
2022-07-30T22:19:31.344Z,22.31
2022-07-30T22:24:47.882Z,22.38
2022-07-30T22:27:15.031Z,22.43
2022-07-30T22:29:43.399Z,22.43
2022-07-30T22:32:11.250Z,22.48
2022-07-30T22:34:38.040Z,22.49
2022-07-30T22:37:04.682Z,22.49
2022-07-30T22:42:26.971Z,22.43
2022-07-30T22:44:55.513Z,22.43
2022-07-30T22:47:53.943Z,22.45
2022-07-30T22:50:10.200Z,22.45
2022-07-30T22:52:39.411Z,22.59
2022-07-30T22:55:22.346Z,22.55
2022-07-30T22:57:49.410Z,22.43
2022-07-30T23:00:28.009Z,22.41
2022-07-30T23:02:59.373Z,22.41
2022-07-30T23:05:26.034Z,22.43
2022-07-30T23:07:52.886Z,22.44
2022-07-30T23:10:21.355Z,22.43
2022-07-30T23:12:27.228Z,23.05
2022-07-30T23:12:29.024Z,22.43
2022-07-30T23:12:31.356Z,22.33
2022-07-30T23:12:52.008Z,22.43
2022-07-30T23:15:19.884Z,22.44
2022-07-30T23:17:47.142Z,22.41
2022-07-30T23:20:16.055Z,22.37
2022-07-30T23:22:42.929Z,22.30
2022-07-30T23:25:12.402Z,22.20
2022-07-30T23:27:39.327Z,22.14
2022-07-30T23:30:08.639Z,22.10
2022-07-30T23:32:36.667Z,22.07
2022-07-30T23:35:04.558Z,22.04
2022-07-30T23:37:47.613Z,22.03
2022-07-30T23:40:15.844Z,21.99
2022-07-30T23:42:42.398Z,21.93
2022-07-30T23:45:09.275Z,21.92
2022-07-30T23:47:56.652Z,21.89
2022-07-30T23:50:22.392Z,21.82
2022-07-30T23:52:48.997Z,21.78
2022-07-30T23:55:16.114Z,21.76
2022-07-30T23:57:42.759Z,21.75
